sensor_id;sensor_type;location;lat;lon;timestamp;pressure;altitude;pressure_sealevel;temperature;humidity
41044;BME280;51680;49.806;18.774;2023-10-08T00:02:12;97102.78;;;19.46;63.59
41044;BME280;51680;49.806;18.774;2023-10-08T00:05:22;97101.91;;;19.38;63.75
41044;BME280;51680;49.806;18.774;2023-10-08T00:08:24;97105.53;;;19.37;63.71
41044;BME280;51680;49.806;18.774;2023-10-08T00:11:26;97115.47;;;19.43;63.45
41044;BME280;51680;49.806;18.774;2023-10-08T00:14:29;97097.94;;;19.42;63.51
41044;BME280;51680;49.806;18.774;2023-10-08T00:17:33;97104.38;;;19.39;63.73
41044;BME280;51680;49.806;18.774;2023-10-08T00:20:35;97099.94;;;19.40;63.64
41044;BME280;51680;49.806;18.774;2023-10-08T00:23:44;97096.94;;;19.35;63.79
41044;BME280;51680;49.806;18.774;2023-10-08T00:26:52;97088.31;;;19.33;64.13
41044;BME280;51680;49.806;18.774;2023-10-08T00:29:55;97089.59;;;19.29;64.12
41044;BME280;51680;49.806;18.774;2023-10-08T00:32:59;97092.91;;;19.23;64.15
41044;BME280;51680;49.806;18.774;2023-10-08T00:36:01;97087.59;;;19.23;64.24
41044;BME280;51680;49.806;18.774;2023-10-08T00:39:18;97092.59;;;19.26;64.03
41044;BME280;51680;49.806;18.774;2023-10-08T00:42:24;97100.03;;;19.22;64.39
41044;BME280;51680;49.806;18.774;2023-10-08T00:45:28;97101.19;;;19.28;64.27
41044;BME280;51680;49.806;18.774;2023-10-08T00:48:32;97083.34;;;19.30;64.36
41044;BME280;51680;49.806;18.774;2023-10-08T00:51:37;97088.47;;;19.31;63.97
41044;BME280;51680;49.806;18.774;2023-10-08T00:54:42;97091.66;;;19.35;63.92
41044;BME280;51680;49.806;18.774;2023-10-08T00:57:56;97086.16;;;19.36;63.98
41044;BME280;51680;49.806;18.774;2023-10-08T01:00:59;97092.47;;;19.35;64.16
41044;BME280;51680;49.806;18.774;2023-10-08T01:04:05;97078.91;;;19.38;63.98
41044;BME280;51680;49.806;18.774;2023-10-08T01:07:13;97081.72;;;19.37;64.11
41044;BME280;51680;49.806;18.774;2023-10-08T01:10:17;97078.59;;;19.41;64.06
41044;BME280;51680;49.806;18.774;2023-10-08T01:13:21;97072.94;;;19.36;64.04
41044;BME280;51680;49.806;18.774;2023-10-08T01:16:23;97085.69;;;19.41;64.09
41044;BME280;51680;49.806;18.774;2023-10-08T01:19:28;97094.31;;;19.43;64.07
41044;BME280;51680;49.806;18.774;2023-10-08T01:22:33;97086.22;;;19.44;64.10
41044;BME280;51680;49.806;18.774;2023-10-08T01:25:36;97082.06;;;19.42;64.27
41044;BME280;51680;49.806;18.774;2023-10-08T01:28:39;97062.38;;;19.44;63.98
41044;BME280;51680;49.806;18.774;2023-10-08T01:31:43;97093.94;;;19.30;65.59
41044;BME280;51680;49.806;18.774;2023-10-08T01:34:45;97084.50;;;19.35;64.35
41044;BME280;51680;49.806;18.774;2023-10-08T01:37:48;97086.84;;;19.38;64.57
41044;BME280;51680;49.806;18.774;2023-10-08T01:40:51;97074.28;;;19.40;64.44
41044;BME280;51680;49.806;18.774;2023-10-08T01:43:53;97045.00;;;19.42;64.31
41044;BME280;51680;49.806;18.774;2023-10-08T01:46:54;97054.94;;;19.40;64.30
41044;BME280;51680;49.806;18.774;2023-10-08T01:49:59;97053.59;;;19.36;64.51
41044;BME280;51680;49.806;18.774;2023-10-08T01:53:07;97063.47;;;19.34;64.70
41044;BME280;51680;49.806;18.774;2023-10-08T01:56:10;97054.03;;;19.31;64.56
41044;BME280;51680;49.806;18.774;2023-10-08T01:59:13;97041.00;;;19.30;64.70
41044;BME280;51680;49.806;18.774;2023-10-08T02:02:16;97041.56;;;19.16;66.35
41044;BME280;51680;49.806;18.774;2023-10-08T02:05:18;97033.28;;;19.19;64.96
41044;BME280;51680;49.806;18.774;2023-10-08T02:08:22;97028.94;;;19.10;65.47
41044;BME280;51680;49.806;18.774;2023-10-08T02:11:24;97034.13;;;19.19;64.94
41044;BME280;51680;49.806;18.774;2023-10-08T02:14:28;97032.63;;;19.17;65.10
41044;BME280;51680;49.806;18.774;2023-10-08T02:17:32;97024.00;;;19.15;65.20
41044;BME280;51680;49.806;18.774;2023-10-08T02:20:34;97022.19;;;19.15;65.14
41044;BME280;51680;49.806;18.774;2023-10-08T02:23:37;97016.06;;;19.15;64.96
41044;BME280;51680;49.806;18.774;2023-10-08T02:26:39;97022.19;;;19.15;64.90
41044;BME280;51680;49.806;18.774;2023-10-08T02:29:42;97019.72;;;19.14;64.98
41044;BME280;51680;49.806;18.774;2023-10-08T02:32:44;97030.44;;;19.12;65.13
41044;BME280;51680;49.806;18.774;2023-10-08T02:35:47;97018.91;;;19.13;65.14
41044;BME280;51680;49.806;18.774;2023-10-08T02:38:51;97019.72;;;19.14;65.33
41044;BME280;51680;49.806;18.774;2023-10-08T02:41:53;97016.41;;;19.12;65.06
41044;BME280;51680;49.806;18.774;2023-10-08T02:44:57;97027.63;;;19.06;65.57
41044;BME280;51680;49.806;18.774;2023-10-08T02:48:01;97033.94;;;19.13;65.17
41044;BME280;51680;49.806;18.774;2023-10-08T02:51:12;97034.09;;;19.11;65.38
41044;BME280;51680;49.806;18.774;2023-10-08T02:54:16;97042.88;;;19.12;65.76
41044;BME280;51680;49.806;18.774;2023-10-08T02:57:18;97041.53;;;19.08;65.89
41044;BME280;51680;49.806;18.774;2023-10-08T03:00:22;97058.75;;;19.12;65.86
41044;BME280;51680;49.806;18.774;2023-10-08T03:03:30;97042.22;;;19.18;65.53
41044;BME280;51680;49.806;18.774;2023-10-08T03:06:33;97049.16;;;19.19;65.60
41044;BME280;51680;49.806;18.774;2023-10-08T03:09:36;97054.47;;;19.19;65.55
41044;BME280;51680;49.806;18.774;2023-10-08T03:12:42;97058.84;;;19.28;65.59
41044;BME280;51680;49.806;18.774;2023-10-08T03:15:43;97047.28;;;19.37;65.34
41044;BME280;51680;49.806;18.774;2023-10-08T03:18:58;97061.88;;;19.41;65.09
41044;BME280;51680;49.806;18.774;2023-10-08T03:22:18;97082.06;;;19.42;66.72
41044;BME280;51680;49.806;18.774;2023-10-08T03:25:21;97090.00;;;19.42;67.96
41044;BME280;51680;49.806;18.774;2023-10-08T03:28:25;97078.06;;;19.30;69.26
41044;BME280;51680;49.806;18.774;2023-10-08T03:31:28;97091.28;;;19.04;73.31
41044;BME280;51680;49.806;18.774;2023-10-08T03:34:45;97102.03;;;19.03;70.71
41044;BME280;51680;49.806;18.774;2023-10-08T03:37:49;97120.50;;;18.95;70.04
41044;BME280;51680;49.806;18.774;2023-10-08T03:40:52;97119.19;;;18.73;69.42
41044;BME280;51680;49.806;18.774;2023-10-08T03:43:57;97110.47;;;18.38;68.63
41044;BME280;51680;49.806;18.774;2023-10-08T03:47:05;97126.94;;;17.96;68.38
41044;BME280;51680;49.806;18.774;2023-10-08T03:50:11;97140.75;;;17.63;68.58
41044;BME280;51680;49.806;18.774;2023-10-08T03:53:17;97150.19;;;17.29;69.44
41044;BME280;51680;49.806;18.774;2023-10-08T03:56:23;97167.34;;;17.06;70.09
41044;BME280;51680;49.806;18.774;2023-10-08T03:59:25;97199.31;;;16.84;70.28
41044;BME280;51680;49.806;18.774;2023-10-08T04:02:31;97212.94;;;16.61;70.87
41044;BME280;51680;49.806;18.774;2023-10-08T04:05:40;97222.63;;;16.41;71.17
41044;BME280;51680;49.806;18.774;2023-10-08T04:09:00;97207.63;;;16.13;71.45
41044;BME280;51680;49.806;18.774;2023-10-08T04:12:18;97213.13;;;15.91;71.86
41044;BME280;51680;49.806;18.774;2023-10-08T04:15:19;97219.19;;;15.82;72.19
41044;BME280;51680;49.806;18.774;2023-10-08T04:18:21;97224.16;;;15.76;72.28
41044;BME280;51680;49.806;18.774;2023-10-08T04:21:23;97234.38;;;15.69;72.59
41044;BME280;51680;49.806;18.774;2023-10-08T04:24:27;97250.13;;;15.60;72.98
41044;BME280;51680;49.806;18.774;2023-10-08T04:27:31;97268.69;;;15.58;73.28
41044;BME280;51680;49.806;18.774;2023-10-08T04:30:35;97275.44;;;15.51;73.11
41044;BME280;51680;49.806;18.774;2023-10-08T04:33:37;97302.41;;;15.44;73.27
41044;BME280;51680;49.806;18.774;2023-10-08T04:36:39;97287.97;;;15.38;73.38
41044;BME280;51680;49.806;18.774;2023-10-08T04:39:41;97310.97;;;15.36;73.63
41044;BME280;51680;49.806;18.774;2023-10-08T04:42:49;97311.28;;;15.32;73.86
41044;BME280;51680;49.806;18.774;2023-10-08T04:45:51;97309.06;;;15.27;73.89
41044;BME280;51680;49.806;18.774;2023-10-08T04:48:52;97308.00;;;15.19;74.07
41044;BME280;51680;49.806;18.774;2023-10-08T04:51:55;97332.06;;;15.14;74.06
41044;BME280;51680;49.806;18.774;2023-10-08T04:54:58;97343.59;;;15.02;74.61
41044;BME280;51680;49.806;18.774;2023-10-08T04:58:14;97354.63;;;14.96;74.83
41044;BME280;51680;49.806;18.774;2023-10-08T05:01:23;97363.00;;;14.90;74.72
41044;BME280;51680;49.806;18.774;2023-10-08T05:04:38;97376.41;;;14.87;74.75
41044;BME280;51680;49.806;18.774;2023-10-08T05:07:56;97380.84;;;14.87;74.66
41044;BME280;51680;49.806;18.774;2023-10-08T05:11:15;97397.22;;;14.79;74.87
41044;BME280;51680;49.806;18.774;2023-10-08T05:14:26;97414.44;;;14.72;74.92
41044;BME280;51680;49.806;18.774;2023-10-08T05:17:35;97404.66;;;14.63;74.87
41044;BME280;51680;49.806;18.774;2023-10-08T05:20:46;97418.03;;;14.49;74.64
41044;BME280;51680;49.806;18.774;2023-10-08T05:24:00;97443.16;;;14.31;74.44
41044;BME280;51680;49.806;18.774;2023-10-08T05:27:13;97460.78;;;14.18;74.38
41044;BME280;51680;49.806;18.774;2023-10-08T05:30:39;97459.91;;;13.96;78.48
41044;BME280;51680;49.806;18.774;2023-10-08T05:33:53;97470.84;;;13.90;74.65
41044;BME280;51680;49.806;18.774;2023-10-08T05:37:15;97479.09;;;13.85;74.53
41044;BME280;51680;49.806;18.774;2023-10-08T05:40:30;97484.34;;;13.85;74.60
41044;BME280;51680;49.806;18.774;2023-10-08T05:43:52;97494.94;;;13.84;74.66
41044;BME280;51680;49.806;18.774;2023-10-08T05:47:09;97493.59;;;13.78;74.88
41044;BME280;51680;49.806;18.774;2023-10-08T05:50:29;97511.75;;;13.81;75.03
41044;BME280;51680;49.806;18.774;2023-10-08T05:53:39;97521.69;;;13.89;75.05
41044;BME280;51680;49.806;18.774;2023-10-08T05:56:44;97527.41;;;13.94;74.82
41044;BME280;51680;49.806;18.774;2023-10-08T06:00:06;97550.72;;;13.98;74.75
41044;BME280;51680;49.806;18.774;2023-10-08T06:03:27;97556.44;;;14.03;74.95
41044;BME280;51680;49.806;18.774;2023-10-08T06:06:37;97556.94;;;14.08;74.74
41044;BME280;51680;49.806;18.774;2023-10-08T06:09:48;97549.88;;;14.09;74.55
41044;BME280;51680;49.806;18.774;2023-10-08T06:13:03;97548.31;;;14.06;74.28
41044;BME280;51680;49.806;18.774;2023-10-08T06:16:06;97572.09;;;14.05;74.40
41044;BME280;51680;49.806;18.774;2023-10-08T06:19:11;97587.50;;;14.09;75.07
41044;BME280;51680;49.806;18.774;2023-10-08T06:22:12;97580.22;;;14.13;74.78
41044;BME280;51680;49.806;18.774;2023-10-08T06:25:14;97587.03;;;14.15;74.67
41044;BME280;51680;49.806;18.774;2023-10-08T06:28:24;97603.50;;;14.17;74.66
41044;BME280;51680;49.806;18.774;2023-10-08T06:31:26;97613.53;;;14.12;74.57
41044;BME280;51680;49.806;18.774;2023-10-08T06:34:31;97610.06;;;14.12;74.69
41044;BME280;51680;49.806;18.774;2023-10-08T06:37:33;97619.59;;;14.13;74.68
41044;BME280;51680;49.806;18.774;2023-10-08T06:40:35;97621.91;;;14.17;74.83
41044;BME280;51680;49.806;18.774;2023-10-08T06:43:44;97619.97;;;14.19;74.71
41044;BME280;51680;49.806;18.774;2023-10-08T06:46:48;97617.03;;;14.24;74.63
41044;BME280;51680;49.806;18.774;2023-10-08T06:49:54;97636.84;;;14.28;74.46
41044;BME280;51680;49.806;18.774;2023-10-08T06:52:56;97647.84;;;14.33;74.69
41044;BME280;51680;49.806;18.774;2023-10-08T06:55:57;97656.13;;;14.39;74.65
41044;BME280;51680;49.806;18.774;2023-10-08T06:59:04;97664.59;;;14.43;74.67
41044;BME280;51680;49.806;18.774;2023-10-08T07:02:10;97665.22;;;14.46;74.51
41044;BME280;51680;49.806;18.774;2023-10-08T07:05:13;97667.75;;;14.48;74.26
41044;BME280;51680;49.806;18.774;2023-10-08T07:08:15;97663.66;;;14.44;74.03
41044;BME280;51680;49.806;18.774;2023-10-08T07:11:17;97669.03;;;14.42;74.07
41044;BME280;51680;49.806;18.774;2023-10-08T07:14:37;97673.44;;;14.42;74.35
41044;BME280;51680;49.806;18.774;2023-10-08T07:17:39;97670.69;;;14.43;74.06
41044;BME280;51680;49.806;18.774;2023-10-08T07:20:45;97678.44;;;14.34;77.69
41044;BME280;51680;49.806;18.774;2023-10-08T07:23:53;97685.00;;;14.39;73.92
41044;BME280;51680;49.806;18.774;2023-10-08T07:26:57;97690.75;;;14.44;74.27
41044;BME280;51680;49.806;18.774;2023-10-08T07:30:00;97685.06;;;14.50;74.22
41044;BME280;51680;49.806;18.774;2023-10-08T07:33:04;97677.78;;;14.54;73.91
41044;BME280;51680;49.806;18.774;2023-10-08T07:36:07;97696.91;;;14.56;73.60
41044;BME280;51680;49.806;18.774;2023-10-08T07:39:14;97704.66;;;14.57;73.26
41044;BME280;51680;49.806;18.774;2023-10-08T07:42:26;97704.66;;;14.57;73.36
41044;BME280;51680;49.806;18.774;2023-10-08T07:45:28;97708.25;;;14.56;73.14
41044;BME280;51680;49.806;18.774;2023-10-08T07:48:30;97720.22;;;14.60;72.97
41044;BME280;51680;49.806;18.774;2023-10-08T07:51:33;97716.38;;;14.64;72.77
41044;BME280;51680;49.806;18.774;2023-10-08T07:54:35;97716.88;;;14.69;72.98
41044;BME280;51680;49.806;18.774;2023-10-08T07:57:37;97729.28;;;14.67;72.81
41044;BME280;51680;49.806;18.774;2023-10-08T08:00:38;97721.41;;;14.67;73.12
41044;BME280;51680;49.806;18.774;2023-10-08T08:03:41;97727.16;;;14.72;73.26
41044;BME280;51680;49.806;18.774;2023-10-08T08:06:47;97738.41;;;14.74;73.02
41044;BME280;51680;49.806;18.774;2023-10-08T08:09:51;97746.91;;;14.78;73.19
41044;BME280;51680;49.806;18.774;2023-10-08T08:12:58;97740.91;;;14.76;73.10
41044;BME280;51680;49.806;18.774;2023-10-08T08:16:00;97746.41;;;14.73;73.09
41044;BME280;51680;49.806;18.774;2023-10-08T08:19:09;97753.16;;;14.64;73.20
41044;BME280;51680;49.806;18.774;2023-10-08T08:22:15;97757.00;;;14.60;72.79
41044;BME280;51680;49.806;18.774;2023-10-08T08:25:21;97751.34;;;14.54;72.54
41044;BME280;51680;49.806;18.774;2023-10-08T08:28:35;97756.31;;;14.46;72.78
41044;BME280;51680;49.806;18.774;2023-10-08T08:31:36;97749.50;;;14.43;72.99
41044;BME280;51680;49.806;18.774;2023-10-08T08:34:38;97756.22;;;14.47;73.17
41044;BME280;51680;49.806;18.774;2023-10-08T08:37:45;97754.09;;;14.52;73.45
41044;BME280;51680;49.806;18.774;2023-10-08T08:40:47;97762.00;;;14.63;73.14
41044;BME280;51680;49.806;18.774;2023-10-08T08:43:50;97760.72;;;15.03;72.29
41044;BME280;51680;49.806;18.774;2023-10-08T08:46:58;97777.13;;;15.29;71.13
41044;BME280;51680;49.806;18.774;2023-10-08T08:50:05;97766.78;;;15.38;71.28
41044;BME280;51680;49.806;18.774;2023-10-08T08:53:10;97760.69;;;16.78;68.39
41044;BME280;51680;49.806;18.774;2023-10-08T08:56:12;97757.13;;;18.19;64.78
41044;BME280;51680;49.806;18.774;2023-10-08T08:59:16;97770.28;;;18.50;63.30
41044;BME280;51680;49.806;18.774;2023-10-08T09:02:18;97786.91;;;18.21;62.92
41044;BME280;51680;49.806;18.774;2023-10-08T09:05:19;97792.16;;;17.72;63.52
41044;BME280;51680;49.806;18.774;2023-10-08T09:08:35;97801.88;;;17.10;65.08
41044;BME280;51680;49.806;18.774;2023-10-08T09:11:39;97803.28;;;16.62;66.46
41044;BME280;51680;49.806;18.774;2023-10-08T09:14:42;97814.13;;;16.26;67.52
41044;BME280;51680;49.806;18.774;2023-10-08T09:17:45;97811.53;;;16.04;68.02
41044;BME280;51680;49.806;18.774;2023-10-08T09:20:46;97811.03;;;15.88;68.18
41044;BME280;51680;49.806;18.774;2023-10-08T09:23:51;97816.47;;;15.87;68.71
41044;BME280;51680;49.806;18.774;2023-10-08T09:26:54;97807.44;;;17.48;64.91
41044;BME280;51680;49.806;18.774;2023-10-08T09:29:58;97807.47;;;18.58;62.18
41044;BME280;51680;49.806;18.774;2023-10-08T09:33:00;97807.06;;;19.10;60.63
41044;BME280;51680;49.806;18.774;2023-10-08T09:36:03;97800.56;;;19.69;59.11
41044;BME280;51680;49.806;18.774;2023-10-08T09:39:07;97800.22;;;20.28;57.49
41044;BME280;51680;49.806;18.774;2023-10-08T09:42:21;97794.91;;;21.42;55.29
41044;BME280;51680;49.806;18.774;2023-10-08T09:45:25;97791.31;;;22.44;52.62
41044;BME280;51680;49.806;18.774;2023-10-08T09:48:30;97800.38;;;21.92;52.68
41044;BME280;51680;49.806;18.774;2023-10-08T09:51:33;97806.69;;;21.05;53.51
41044;BME280;51680;49.806;18.774;2023-10-08T09:54:44;97798.06;;;22.72;50.42
41044;BME280;51680;49.806;18.774;2023-10-08T09:57:47;97794.53;;;24.15;47.08
41044;BME280;51680;49.806;18.774;2023-10-08T10:00:54;97804.94;;;25.02;45.03
41044;BME280;51680;49.806;18.774;2023-10-08T10:03:56;97814.41;;;24.43;45.08
41044;BME280;51680;49.806;18.774;2023-10-08T10:07:08;97823.81;;;23.53;45.77
41044;BME280;51680;49.806;18.774;2023-10-08T10:10:27;97823.97;;;22.20;46.99
41044;BME280;51680;49.806;18.774;2023-10-08T10:13:34;97827.78;;;21.67;48.59
41044;BME280;51680;49.806;18.774;2023-10-08T10:16:36;97822.63;;;23.15;46.45
41044;BME280;51680;49.806;18.774;2023-10-08T10:19:40;97817.97;;;25.05;42.63
41044;BME280;51680;49.806;18.774;2023-10-08T10:22:46;97818.81;;;27.10;41.04
41044;BME280;51680;49.806;18.774;2023-10-08T10:25:50;97816.63;;;28.44;37.39
41044;BME280;51680;49.806;18.774;2023-10-08T10:29:22;97820.41;;;29.10;31.69
41044;BME280;51680;49.806;18.774;2023-10-08T10:32:45;97829.94;;;28.59;34.12
41044;BME280;51680;49.806;18.774;2023-10-08T10:35:51;97841.06;;;26.89;33.67
41044;BME280;51680;49.806;18.774;2023-10-08T10:38:53;97840.03;;;25.52;35.96
41044;BME280;51680;49.806;18.774;2023-10-08T10:41:57;97847.41;;;24.12;38.15
41044;BME280;51680;49.806;18.774;2023-10-08T10:45:05;97853.59;;;23.16;39.15
41044;BME280;51680;49.806;18.774;2023-10-08T10:48:09;97855.25;;;22.52;40.64
41044;BME280;51680;49.806;18.774;2023-10-08T10:51:13;97857.75;;;21.69;40.83
41044;BME280;51680;49.806;18.774;2023-10-08T10:54:18;97860.31;;;20.91;41.79
41044;BME280;51680;49.806;18.774;2023-10-08T10:57:22;97863.28;;;20.34;42.64
41044;BME280;51680;49.806;18.774;2023-10-08T11:00:27;97856.31;;;19.87;42.76
41044;BME280;51680;49.806;18.774;2023-10-08T11:04:05;97869.78;;;19.38;43.68
41044;BME280;51680;49.806;18.774;2023-10-08T11:07:18;97865.16;;;19.02;43.75
41044;BME280;51680;49.806;18.774;2023-10-08T11:10:21;97867.47;;;18.67;43.80
41044;BME280;51680;49.806;18.774;2023-10-08T11:13:26;97868.25;;;18.39;44.01
41044;BME280;51680;49.806;18.774;2023-10-08T11:16:37;97863.66;;;18.20;44.99
41044;BME280;51680;49.806;18.774;2023-10-08T11:19:39;97872.13;;;18.04;45.49
41044;BME280;51680;49.806;18.774;2023-10-08T11:22:43;97877.22;;;17.96;44.98
41044;BME280;51680;49.806;18.774;2023-10-08T11:25:55;97868.22;;;17.78;44.98
41044;BME280;51680;49.806;18.774;2023-10-08T11:29:02;97876.91;;;17.69;44.92
41044;BME280;51680;49.806;18.774;2023-10-08T11:32:04;97882.50;;;17.55;45.55
41044;BME280;51680;49.806;18.774;2023-10-08T11:35:14;97881.28;;;17.59;45.95
41044;BME280;51680;49.806;18.774;2023-10-08T11:38:17;97879.94;;;17.65;46.07
41044;BME280;51680;49.806;18.774;2023-10-08T11:41:22;97899.97;;;17.67;46.06
41044;BME280;51680;49.806;18.774;2023-10-08T11:44:29;97890.13;;;17.69;45.72
41044;BME280;51680;49.806;18.774;2023-10-08T11:47:31;97893.47;;;17.71;46.03
41044;BME280;51680;49.806;18.774;2023-10-08T11:50:36;97885.41;;;17.73;45.35
41044;BME280;51680;49.806;18.774;2023-10-08T11:53:38;97890.22;;;17.68;44.39
41044;BME280;51680;49.806;18.774;2023-10-08T11:56:42;97903.19;;;17.50;44.20
41044;BME280;51680;49.806;18.774;2023-10-08T11:59:46;97892.19;;;17.34;44.22
41044;BME280;51680;49.806;18.774;2023-10-08T12:02:49;97906.69;;;17.08;44.54
41044;BME280;51680;49.806;18.774;2023-10-08T12:05:51;97908.06;;;16.92;44.67
41044;BME280;51680;49.806;18.774;2023-10-08T12:08:59;97918.75;;;16.79;45.38
41044;BME280;51680;49.806;18.774;2023-10-08T12:12:01;97912.09;;;16.75;45.11
41044;BME280;51680;49.806;18.774;2023-10-08T12:15:09;97908.72;;;16.73;45.52
41044;BME280;51680;49.806;18.774;2023-10-08T12:18:13;97916.88;;;16.70;44.70
41044;BME280;51680;49.806;18.774;2023-10-08T12:21:16;97921.66;;;16.65;44.46
41044;BME280;51680;49.806;18.774;2023-10-08T12:24:17;97920.56;;;16.68;44.37
41044;BME280;51680;49.806;18.774;2023-10-08T12:27:20;97917.13;;;16.67;44.22
41044;BME280;51680;49.806;18.774;2023-10-08T12:30:23;97919.41;;;16.61;43.99
41044;BME280;51680;49.806;18.774;2023-10-08T12:33:30;97923.72;;;16.51;44.21
41044;BME280;51680;49.806;18.774;2023-10-08T12:36:33;97920.41;;;16.49;44.48
41044;BME280;51680;49.806;18.774;2023-10-08T12:39:36;97922.88;;;16.50;44.91
41044;BME280;51680;49.806;18.774;2023-10-08T12:42:57;97921.94;;;16.51;44.45
41044;BME280;51680;49.806;18.774;2023-10-08T12:46:00;97912.81;;;16.55;44.49
41044;BME280;51680;49.806;18.774;2023-10-08T12:49:03;97924.81;;;16.48;43.13
41044;BME280;51680;49.806;18.774;2023-10-08T12:52:05;97919.66;;;16.36;42.81
41044;BME280;51680;49.806;18.774;2023-10-08T12:55:10;97936.50;;;16.11;43.76
41044;BME280;51680;49.806;18.774;2023-10-08T12:58:14;97933.41;;;16.06;43.45
41044;BME280;51680;49.806;18.774;2023-10-08T13:01:18;97938.91;;;16.03;42.94
41044;BME280;51680;49.806;18.774;2023-10-08T13:04:20;97945.38;;;15.99;42.41
41044;BME280;51680;49.806;18.774;2023-10-08T13:07:27;97939.84;;;15.91;42.69
41044;BME280;51680;49.806;18.774;2023-10-08T13:10:33;97946.06;;;15.90;43.45
41044;BME280;51680;49.806;18.774;2023-10-08T13:13:34;97943.66;;;15.87;42.84
41044;BME280;51680;49.806;18.774;2023-10-08T13:16:39;97939.25;;;15.88;42.87
41044;BME280;51680;49.806;18.774;2023-10-08T13:19:41;97948.72;;;15.90;43.33
41044;BME280;51680;49.806;18.774;2023-10-08T13:22:43;97953.28;;;15.99;43.14
41044;BME280;51680;49.806;18.774;2023-10-08T13:25:44;97945.84;;;16.04;43.34
41044;BME280;51680;49.806;18.774;2023-10-08T13:28:52;97953.75;;;16.04;43.31
41044;BME280;51680;49.806;18.774;2023-10-08T13:32:14;97961.19;;;15.99;43.41
41044;BME280;51680;49.806;18.774;2023-10-08T13:35:18;97973.38;;;15.89;44.03
41044;BME280;51680;49.806;18.774;2023-10-08T13:38:20;97967.47;;;15.86;44.16
41044;BME280;51680;49.806;18.774;2023-10-08T13:41:23;97970.47;;;15.81;44.06
41044;BME280;51680;49.806;18.774;2023-10-08T13:44:29;97975.97;;;15.78;44.09
41044;BME280;51680;49.806;18.774;2023-10-08T13:47:32;97970.94;;;15.75;43.87
41044;BME280;51680;49.806;18.774;2023-10-08T13:50:34;97969.09;;;15.65;43.32
41044;BME280;51680;49.806;18.774;2023-10-08T13:53:36;97970.84;;;15.53;42.75
41044;BME280;51680;49.806;18.774;2023-10-08T13:56:39;97964.38;;;15.46;43.21
41044;BME280;51680;49.806;18.774;2023-10-08T13:59:48;97979.69;;;15.41;43.30
41044;BME280;51680;49.806;18.774;2023-10-08T14:02:52;97984.31;;;15.38;43.38
41044;BME280;51680;49.806;18.774;2023-10-08T14:05:54;97993.47;;;15.32;43.26
41044;BME280;51680;49.806;18.774;2023-10-08T14:08:59;97986.13;;;15.25;43.58
41044;BME280;51680;49.806;18.774;2023-10-08T14:12:01;98000.66;;;15.18;43.49
41044;BME280;51680;49.806;18.774;2023-10-08T14:15:03;97990.50;;;15.13;43.63
41044;BME280;51680;49.806;18.774;2023-10-08T14:18:08;98007.09;;;14.90;44.57
41044;BME280;51680;49.806;18.774;2023-10-08T14:21:12;98009.31;;;14.84;44.75
41044;BME280;51680;49.806;18.774;2023-10-08T14:24:15;98002.91;;;14.75;44.89
41044;BME280;51680;49.806;18.774;2023-10-08T14:27:17;98010.28;;;14.70;44.98
41044;BME280;51680;49.806;18.774;2023-10-08T14:30:25;98019.53;;;14.63;44.47
41044;BME280;51680;49.806;18.774;2023-10-08T14:33:31;98014.72;;;14.57;44.35
41044;BME280;51680;49.806;18.774;2023-10-08T14:36:42;98015.88;;;14.53;44.15
41044;BME280;51680;49.806;18.774;2023-10-08T14:40:01;98017.78;;;14.51;44.20
41044;BME280;51680;49.806;18.774;2023-10-08T14:43:20;98023.25;;;14.48;43.85
41044;BME280;51680;49.806;18.774;2023-10-08T14:46:24;98025.97;;;14.47;43.83
41044;BME280;51680;49.806;18.774;2023-10-08T14:49:29;98028.06;;;14.42;43.88
41044;BME280;51680;49.806;18.774;2023-10-08T14:52:31;98038.06;;;14.37;43.88
41044;BME280;51680;49.806;18.774;2023-10-08T14:55:35;98035.00;;;14.30;43.89
41044;BME280;51680;49.806;18.774;2023-10-08T14:58:37;98038.06;;;14.24;44.41
41044;BME280;51680;49.806;18.774;2023-10-08T15:01:41;98045.38;;;14.07;47.12
41044;BME280;51680;49.806;18.774;2023-10-08T15:04:46;98045.47;;;14.05;45.15
41044;BME280;51680;49.806;18.774;2023-10-08T15:07:48;98049.13;;;14.03;45.00
41044;BME280;51680;49.806;18.774;2023-10-08T15:10:50;98057.13;;;14.01;45.40
41044;BME280;51680;49.806;18.774;2023-10-08T15:13:54;98065.00;;;14.01;45.28
41044;BME280;51680;49.806;18.774;2023-10-08T15:16:55;98066.97;;;13.98;44.98
41044;BME280;51680;49.806;18.774;2023-10-08T15:19:59;98062.69;;;13.97;45.24
41044;BME280;51680;49.806;18.774;2023-10-08T15:23:00;98071.69;;;13.93;45.42
41044;BME280;51680;49.806;18.774;2023-10-08T15:26:02;98085.00;;;13.90;45.32
41044;BME280;51680;49.806;18.774;2023-10-08T15:29:04;98089.63;;;13.86;45.74
41044;BME280;51680;49.806;18.774;2023-10-08T15:32:05;98091.91;;;13.78;46.03
41044;BME280;51680;49.806;18.774;2023-10-08T15:35:09;98098.50;;;13.71;46.63
41044;BME280;51680;49.806;18.774;2023-10-08T15:38:14;98108.97;;;13.59;46.48
41044;BME280;51680;49.806;18.774;2023-10-08T15:41:16;98110.41;;;13.50;46.74
41044;BME280;51680;49.806;18.774;2023-10-08T15:44:19;98111.63;;;13.45;46.89
41044;BME280;51680;49.806;18.774;2023-10-08T15:47:22;98119.41;;;13.46;47.31
41044;BME280;51680;49.806;18.774;2023-10-08T15:50:24;98111.53;;;13.46;47.55
41044;BME280;51680;49.806;18.774;2023-10-08T15:53:27;98125.38;;;13.48;47.65
41044;BME280;51680;49.806;18.774;2023-10-08T15:56:31;98114.88;;;13.48;47.30
41044;BME280;51680;49.806;18.774;2023-10-08T15:59:34;98127.47;;;13.43;47.51
41044;BME280;51680;49.806;18.774;2023-10-08T16:02:37;98129.53;;;13.38;47.93
41044;BME280;51680;49.806;18.774;2023-10-08T16:05:40;98136.00;;;13.33;48.18
41044;BME280;51680;49.806;18.774;2023-10-08T16:08:43;98131.34;;;13.24;47.91
41044;BME280;51680;49.806;18.774;2023-10-08T16:11:44;98137.63;;;13.21;48.32